• Join FlightAware (Why Join?)
  • Login
  • US Flag 
02:54AM EDT


 

Airport Tracker/Info


-or-


 

Live Flight TrackerFlight Track Log ✈ SWA1377 ✈ 28-Apr-2013 ✈ KBUF - KBWI

Flight Track Log - Related Links

Times and Time Zones

All times are in EDT time to prevent confusion due to time zone crossing. See the SWA1377 flight status page for this flight to view local times or setup timezone preferences in your user account.

Time Position Orientation Groundspeed Altitude Reporting Facility
EDT Latitude Longitude Course Direction KTS MPH feet Rate Location/Type
12:25PM 42.8833 -78.8000 222° Southwest 208 239 4,000  Level Buffalo TRACON
12:26PM 42.8333 -78.7833 166° South 226 260 6,800 2,940 Climbing Buffalo TRACON
12:27PM 42.7711 -78.7675 169° South 259 298 10,100 3,060 Climbing Cleveland Center
12:28PM 42.6875 -78.7500 171° South 269 310 13,000 3,300 Climbing Cleveland Center
12:29PM 42.5975 -78.7300 171° South 304 350 16,700 3,540 Climbing Cleveland Center
12:30PM 42.4886 -78.7053 170° South 345 397 20,200 2,100 Climbing Cleveland Center
12:31PM 42.3861 -78.6800 170° South 368 423 21,000 360 Climbing Cleveland Center
12:32PM 42.3056 -78.5956 142° Southeast 368 423 21,000 780 Level Cleveland Center
12:33PM 42.2269 -78.5053 140° Southeast 363 418 22,600 1,920 Climbing Cleveland Center
12:34PM 42.1522 -78.4181 139° Southeast 373 429 24,900 1,200 Climbing Cleveland Center
12:35PM 42.0628 -78.3178 140° Southeast 392 451 25,000  Climbing Cleveland Center
12:36PM 41.9753 -78.2147 139° Southeast 411 473 25,000  Level Cleveland Center
12:37PM 41.8875 -78.1119 139° Southeast 419 482 25,000  Level Cleveland Center
12:38PM 41.7978 -78.0122 140° Southeast 419 482 25,000  Level Cleveland Center
12:38PM 41.7536 -77.9642 141° Southeast 416 479 25,000  Level New York Center
12:39PM 41.6639 -77.8600 139° Southeast 416 479 25,000  Level New York Center
12:40PM 41.5761 -77.7592 139° Southeast 422 486 25,000  Level New York Center
12:41PM 41.4861 -77.6586 140° Southeast 428 493 25,000 -480 Level New York Center
12:42PM 41.3867 -77.5431 139° Southeast 428 493 24,100 -960 Descending New York Center
12:43PM 41.3003 -77.4489 141° Southeast 428 493 23,100 -1,020 Descending New York Center
12:44PM 41.2217 -77.3639 141° Southeast 422 486 22,200 -960 Descending New York Center
12:45PM 41.1411 -77.2733 140° Southeast 400 460 21,200 -1,320 Descending New York Center
12:46PM 41.0647 -77.1861 139° Southeast 383 441 19,600 -1,680 Descending New York Center
12:47PM 40.9881 -77.1019 140° Southeast 371 427 17,900 -1,500 Descending New York Center
12:48PM 40.9147 -77.0264 142° Southeast 355 409 16,600 -1,380 Descending New York Center
12:49PM 40.8361 -76.9369 139° Southeast 339 390 15,200 -840 Descending New York Center
12:50PM 40.7733 -76.8628 138° Southeast 339 390 15,000 -120 Descending New York Center
12:51PM 40.7028 -76.7769 137° Southeast 346 398 15,000  Level New York Center
12:52PM 40.6219 -76.6853 139° Southeast 354 407 15,000  Level New York Center
12:53PM 40.5514 -76.5917 135° Southeast 354 407 15,000  Level New York Center
12:54PM 40.4939 -76.4886 126° Southeast 354 407 15,000  Level New York Center
12:55PM 40.4364 -76.3831 126° Southeast 354 407 15,000  Level New York Center
12:56PM 40.3803 -76.2911 129° Southeast 359 413 15,000  Level New York Center
12:57PM 40.2850 -76.2836 177° South 322 371 15,000 -120 Level New York Center
12:59PM 40.0967 -76.2931 182° South 324 373 14,700 -600 Descending New York Center
01:01PM 39.9667 -76.3000 182° South 291 335 13,000 -1,080 Descending Potomac TRACON
01:02PM 39.8833 -76.3000 180° South 289 333 12,000 -540 Descending Potomac TRACON
01:03PM 39.8000 -76.3000 180° South 282 325 12,000 -600 Level Potomac TRACON
01:04PM 39.7333 -76.3333 201° Southwest 282 325 10,900 -1,260 Descending Potomac TRACON
01:05PM 39.6833 -76.4000 226° Southwest 272 313 9,500 -1,500 Descending Potomac TRACON
01:06PM 39.6333 -76.4833 232° Southwest 271 312 7,900 -1,380 Descending Potomac TRACON
01:07PM 39.6000 -76.5500 237° Southwest 265 305 6,900 -1,080 Descending Potomac TRACON
01:08PM 39.5500 -76.6333 232° Southwest 256 295 5,900 -1,080 Descending Potomac TRACON
01:09PM 39.5000 -76.6833 218° Southwest 248 285 4,800 -1,200 Descending Potomac TRACON
01:10PM 39.4333 -76.7167 201° Southwest 240 276 3,600 -840 Descending Potomac TRACON
01:11PM 39.3833 -76.7667 218° Southwest 233 268 3,200 -300 Descending Potomac TRACON
01:12PM 39.3167 -76.8000 201° Southwest 237 273 3,000 -360 Descending Potomac TRACON
01:13PM 39.2667 -76.8167 194° South 225 259 2,500 -420 Descending Potomac TRACON
01:14PM 39.2167 -76.8167 180° South 178 205 2,300 -540 Descending Potomac TRACON
01:15PM 39.1833 -76.7833 142° Southeast 147 169 1,500 -780 Descending Potomac TRACON
01:16PM 39.1833 -76.7333 90° East 136 157 800 -720 Descending Potomac TRACON
01:18PM 39.1667 -76.6667 270° West  Level FlightAware Approximate
01:25PM 39.1754 -76.6683 270° West  Level Estimated